Time;durP1;ratioP1;P1;durP2;ratioP2;P2;SDS_P1;SDS_P2;PMS_P1;PMS_P2;Temp;Humidity;BMP_temperature;BMP_pressure;BME280_temperature;BME280_humidity;BME280_pressure;Samples;Min_cycle;Max_cycle;Signal;HPM_P1;HPM_P2
2022/11/30 00:00:20;;;;;;;;;;;;;;;8.73;84.81;100084.19;5112999;28;19955;-86
2022/11/30 00:02:48;;;;;;;;;;;;;;;8.69;84.43;100092.09;5097072;27;19923;-84
2022/11/30 00:05:13;;;;;;;;;;;;;;;8.71;84.67;100099.13;5154518;27;19911;-85
2022/11/30 00:07:39;;;;;;;;;;;;;;;8.75;84.11;100089.47;5155119;27;19918;-83
2022/11/30 00:10:05;;;;;;;;;;;;;;;8.68;84.46;100087.69;5130886;27;20395;-85
2022/11/30 00:12:30;;;;;;;;;;;;;;;8.69;84.66;100095.59;5127063;27;19927;-85
2022/11/30 00:14:55;;;;;;;;;;;;;;;8.57;85.22;100092.97;5113842;27;19940;-85
2022/11/30 00:17:21;;;;;;;;;;;;;;;8.63;85.34;100098.22;5113469;28;19912;-85
2022/11/30 00:19:46;;;;;;;;;;;;;;;8.81;83.99;100094.72;5112749;28;20406;-85
2022/11/30 00:22:11;;;;;;;;;;;;;;;8.63;84.76;100084.22;5104830;27;19916;-85
2022/11/30 00:24:37;;;;;;;;;;;;;;;8.66;84.67;100087.69;5133055;27;19918;-83
2022/11/30 00:27:02;;;;;;;;;;;;;;;8.63;84.73;100092.97;5132571;27;19911;-85
2022/11/30 00:29:27;;;;;;;;;;;;;;;8.55;84.68;100090.34;5132751;27;20396;-83
2022/11/30 00:31:53;;;;;;;;;;;;;;;8.54;85.99;100100.84;5133209;27;19911;-84
2022/11/30 00:34:18;;;;;;;;;;;;;;;8.48;85.37;100098.22;5133694;27;19937;-84
2022/11/30 00:36:43;;;;;;;;;;;;;;;8.39;85.67;100099.09;5118620;27;20376;-85
2022/11/30 00:39:08;;;;;;;;;;;;;;;8.43;86.11;100095.56;5133510;27;19915;-85
2022/11/30 00:41:34;;;;;;;;;;;;;;;8.60;85.67;100093.88;5121097;27;19995;-84
2022/11/30 00:43:59;;;;;;;;;;;;;;;8.55;85.22;100081.59;5098838;28;20008;-84
2022/11/30 00:46:24;;;;;;;;;;;;;;;8.42;86.15;100083.31;5125995;27;20428;-84
2022/11/30 00:48:50;;;;;;;;;;;;;;;8.54;85.41;100090.34;5117264;27;20393;-85
2022/11/30 00:51:15;;;;;;;;;;;;;;;8.60;85.16;100082.44;5119459;27;19920;-82
2022/11/30 00:53:40;;;;;;;;;;;;;;;8.66;85.53;100078.94;5123384;27;19915;-84
2022/11/30 00:56:06;;;;;;;;;;;;;;;8.69;84.95;100079.81;5114268;27;20373;-84
2022/11/30 00:58:31;;;;;;;;;;;;;;;8.66;84.73;100082.44;5111787;28;20305;-85
2022/11/30 01:00:57;;;;;;;;;;;;;;;8.46;85.26;100082.44;5116122;27;19916;-85
2022/11/30 01:03:22;;;;;;;;;;;;;;;8.53;85.27;100083.34;5128721;27;19915;-85
2022/11/30 01:05:47;;;;;;;;;;;;;;;8.56;85.49;100080.72;5131550;27;20701;-85
2022/11/30 01:08:13;;;;;;;;;;;;;;;8.74;84.85;100071.91;5132099;27;19922;-84
2022/11/30 01:10:39;;;;;;;;;;;;;;;8.60;85.54;100077.19;5132547;27;19918;-84
2022/11/30 01:13:04;;;;;;;;;;;;;;;8.52;85.20;100081.59;5133171;27;19912;-86
2022/11/30 01:15:30;;;;;;;;;;;;;;;8.49;85.37;100086.84;5114540;27;19915;-85
2022/11/30 01:17:58;;;;;;;;;;;;;;;8.54;85.67;100087.72;5132931;27;19923;-85
2022/11/30 01:20:23;;;;;;;;;;;;;;;8.53;85.81;100085.97;5132934;27;19926;-84
2022/11/30 01:22:48;;;;;;;;;;;;;;;8.65;85.26;100088.59;5119121;27;19915;-84
2022/11/30 01:25:14;;;;;;;;;;;;;;;8.68;85.06;100082.44;5112210;28;19920;-86
2022/11/30 01:27:39;;;;;;;;;;;;;;;8.69;84.35;100078.94;5112225;28;19915;-86
2022/11/30 01:30:05;;;;;;;;;;;;;;;8.70;85.18;100081.56;5112381;28;20440;-85
2022/11/30 01:32:30;;;;;;;;;;;;;;;8.64;85.53;100075.44;5112116;28;19915;-85
2022/11/30 01:34:55;;;;;;;;;;;;;;;8.68;84.56;100078.06;5112294;28;20006;-85
2022/11/30 01:37:20;;;;;;;;;;;;;;;8.65;85.25;100075.44;5112216;28;20002;-85
2022/11/30 01:39:46;;;;;;;;;;;;;;;8.60;84.87;100078.09;5112007;28;19915;-85
2022/11/30 01:42:15;;;;;;;;;;;;;;;8.49;85.54;100073.69;5112075;28;20015;-86
2022/11/30 01:44:46;;;;;;;;;;;;;;;8.47;85.72;100068.44;5126254;27;19922;-84
2022/11/30 01:47:12;;;;;;;;;;;;;;;8.61;85.38;100063.16;5119862;27;19923;-84
2022/11/30 01:49:46;;;;;;;;;;;;;;;8.54;85.07;100066.66;5111898;28;20308;-84
2022/11/30 01:52:11;;;;;;;;;;;;;;;8.52;85.57;100065.81;5113193;27;20308;-84
2022/11/30 01:54:39;;;;;;;;;;;;;;;8.53;85.08;100068.44;5125030;27;19911;-84
2022/11/30 01:57:10;;;;;;;;;;;;;;;8.56;85.74;100067.56;5125949;27;20002;-84
2022/11/30 01:59:36;;;;;;;;;;;;;;;8.52;85.78;100069.31;5132332;27;20415;-84
2022/11/30 02:02:01;;;;;;;;;;;;;;;8.64;85.93;100052.66;5131895;27;19912;-84
2022/11/30 02:04:28;;;;;;;;;;;;;;;8.80;85.26;100055.25;5123451;27;20014;-84
2022/11/30 02:06:55;;;;;;;;;;;;;;;8.62;85.09;100057.03;5123493;27;19968;-83
2022/11/30 02:09:21;;;;;;;;;;;;;;;8.52;85.36;100061.41;5116388;28;19912;-83
2022/11/30 02:11:47;;;;;;;;;;;;;;;8.55;85.66;100063.19;5129029;28;19971;-83
2022/11/30 02:14:27;;;;;;;;;;;;;;;8.69;85.30;100060.53;5132322;28;19908;-83
2022/11/30 02:16:55;;;;;;;;;;;;;;;8.64;85.00;100055.28;5120690;28;19915;-83
2022/11/30 02:19:31;;;;;;;;;;;;;;;8.63;85.10;100061.41;5132193;28;19912;-84
2022/11/30 02:22:13;;;;;;;;;;;;;;;8.58;85.45;100055.28;5131994;28;20006;-83
2022/11/30 02:24:53;;;;;;;;;;;;;;;8.52;84.97;100057.91;5131780;28;19907;-84
2022/11/30 02:27:37;;;;;;;;;;;;;;;8.63;85.47;100058.78;5132426;28;19911;-84
2022/11/30 02:30:05;;;;;;;;;;;;;;;8.66;85.16;100065.78;5131640;28;19957;-84
2022/11/30 02:32:33;;;;;;;;;;;;;;;8.67;85.30;100068.41;5131547;28;19915;-85
2022/11/30 02:35:01;;;;;;;;;;;;;;;8.51;85.19;100067.56;5132218;28;19912;-85
2022/11/30 02:37:27;;;;;;;;;;;;;;;8.17;86.49;100064.91;5129582;28;20006;-84
2022/11/30 02:39:52;;;;;;;;;;;;;;;8.20;87.49;100064.91;5131947;28;20406;-84
2022/11/30 02:42:18;;;;;;;;;;;;;;;8.35;86.82;100065.78;5131874;28;19911;-84
2022/11/30 02:44:47;;;;;;;;;;;;;;;8.51;86.00;100069.31;5123350;28;19959;-83
2022/11/30 02:47:19;;;;;;;;;;;;;;;8.53;86.19;100059.69;5111327;28;20389;-83
2022/11/30 02:50:00;;;;;;;;;;;;;;;8.59;86.39;100063.19;5110993;28;19959;-84
2022/11/30 02:52:27;;;;;;;;;;;;;;;8.68;85.74;100072.81;5113831;28;19923;-85
2022/11/30 02:54:57;;;;;;;;;;;;;;;8.80;85.53;100074.53;5115385;28;19912;-83
2022/11/30 02:57:23;;;;;;;;;;;;;;;8.66;85.12;100078.94;5115203;28;19946;-83
2022/11/30 02:59:48;;;;;;;;;;;;;;;8.48;85.51;100071.94;5115157;28;19916;-83
2022/11/30 03:02:13;;;;;;;;;;;;;;;8.50;86.15;100075.47;5122328;27;19941;-83
2022/11/30 03:04:39;;;;;;;;;;;;;;;8.42;85.66;100075.44;5124778;27;20442;-84
2022/11/30 03:07:04;;;;;;;;;;;;;;;8.22;87.34;100073.66;5115322;27;20014;-84
2022/11/30 03:09:29;;;;;;;;;;;;;;;8.23;86.40;100070.16;5133061;27;20419;-85
2022/11/30 03:11:55;;;;;;;;;;;;;;;8.43;86.76;100077.16;5135942;27;19915;-84
2022/11/30 03:14:20;;;;;;;;;;;;;;;7.91;89.10;100077.09;5136116;27;20393;-84
2022/11/30 03:16:45;;;;;;;;;;;;;;;8.31;88.31;100082.41;5133655;27;19981;-85
2022/11/30 03:19:11;;;;;;;;;;;;;;;8.50;87.08;100075.47;5134934;27;19967;-83
2022/11/30 03:21:36;;;;;;;;;;;;;;;8.55;86.59;100084.22;5135702;27;19916;-83
2022/11/30 03:24:02;;;;;;;;;;;;;;;8.64;86.25;100078.09;5135246;27;19949;-83
2022/11/30 03:26:27;;;;;;;;;;;;;;;8.67;85.63;100084.19;5134866;27;19919;-83
2022/11/30 03:28:52;;;;;;;;;;;;;;;8.54;86.01;100082.44;5135084;27;19915;-84
2022/11/30 03:31:18;;;;;;;;;;;;;;;8.59;85.79;100078.09;5134883;27;19912;-83
2022/11/30 03:33:43;;;;;;;;;;;;;;;8.65;85.14;100075.44;5135034;27;19911;-84
2022/11/30 03:36:10;;;;;;;;;;;;;;;8.56;85.91;100078.94;5115890;27;19920;-85
2022/11/30 03:38:35;;;;;;;;;;;;;;;8.67;85.84;100078.06;5121901;27;19916;-85
2022/11/30 03:41:01;;;;;;;;;;;;;;;8.73;85.48;100086.81;5114795;28;20403;-83
2022/11/30 03:43:27;;;;;;;;;;;;;;;8.71;85.93;100082.44;5120706;27;19951;-83
2022/11/30 03:45:52;;;;;;;;;;;;;;;8.75;85.61;100079.81;5114008;28;20407;-83
2022/11/30 03:48:19;;;;;;;;;;;;;;;8.73;84.96;100076.31;5113308;27;19915;-83
2022/11/30 03:50:49;;;;;;;;;;;;;;;8.82;85.48;100085.94;5114406;27;19915;-83
2022/11/30 03:53:18;;;;;;;;;;;;;;;8.79;84.86;100080.69;5114009;28;20023;-83
2022/11/30 03:55:43;;;;;;;;;;;;;;;8.34;86.60;100085.94;5114155;28;19934;-83
2022/11/30 03:58:09;;;;;;;;;;;;;;;8.34;86.83;100087.66;5114199;28;20429;-83
2022/11/30 04:00:34;;;;;;;;;;;;;;;8.55;86.53;100089.47;5113871;28;19912;-84
2022/11/30 04:02:59;;;;;;;;;;;;;;;8.57;85.90;100083.34;5114315;27;19920;-85
2022/11/30 04:05:25;;;;;;;;;;;;;;;8.60;85.75;100090.34;5103177;27;20010;-85
2022/11/30 04:07:50;;;;;;;;;;;;;;;8.54;85.76;100101.75;5128068;27;20394;-85
2022/11/30 04:10:15;;;;;;;;;;;;;;;8.50;85.50;100107.00;5134531;27;19911;-84
2022/11/30 04:12:41;;;;;;;;;;;;;;;8.45;86.57;100106.13;5122778;27;20403;-85
2022/11/30 04:15:06;;;;;;;;;;;;;;;8.61;86.71;100107.88;5119488;27;20313;-84
2022/11/30 04:17:32;;;;;;;;;;;;;;;8.71;85.87;100103.47;5132772;27;19915;-84
2022/11/30 04:19:57;;;;;;;;;;;;;;;8.64;85.92;100099.13;5117098;27;20018;-85
2022/11/30 04:22:22;;;;;;;;;;;;;;;8.76;85.48;100107.88;5130838;27;20052;-85
2022/11/30 04:24:48;;;;;;;;;;;;;;;8.67;85.91;100107.88;5095156;28;20064;-85
2022/11/30 04:27:41;;;;;;;;;;;;;;;8.57;86.60;100108.75;5113555;27;19916;-91
2022/11/30 04:30:07;;;;;;;;;;;;;;;8.47;86.65;100109.63;5106172;27;19915;-85
2022/11/30 04:32:32;;;;;;;;;;;;;;;8.19;88.42;100105.19;5127935;27;20063;-85
2022/11/30 04:34:57;;;;;;;;;;;;;;;8.35;89.01;100100.81;5123421;27;20478;-87
2022/11/30 04:37:22;;;;;;;;;;;;;;;8.45;88.10;100103.47;5130231;27;20393;-85
2022/11/30 04:39:48;;;;;;;;;;;;;;;8.23;89.60;100104.34;5130162;27;19919;-84
2022/11/30 04:42:13;;;;;;;;;;;;;;;8.16;90.12;100104.31;5130072;27;19915;-85
2022/11/30 04:44:39;;;;;;;;;;;;;;;8.10;91.50;100102.56;5130115;27;20312;-87
2022/11/30 04:47:04;;;;;;;;;;;;;;;7.87;92.69;100094.63;5127652;27;19964;-87
2022/11/30 04:49:29;;;;;;;;;;;;;;;8.01;94.23;100092.91;5127497;27;19919;-85
2022/11/30 04:51:55;;;;;;;;;;;;;;;8.09;93.63;100097.28;5127785;27;19942;-87
2022/11/30 04:54:20;;;;;;;;;;;;;;;7.97;94.86;100092.88;5130615;27;19973;-86
2022/11/30 04:56:45;;;;;;;;;;;;;;;7.89;95.50;100095.50;5127243;27;19911;-87
2022/11/30 04:59:18;;;;;;;;;;;;;;;7.98;95.08;100099.91;5108869;27;19915;-91
2022/11/30 05:01:43;;;;;;;;;;;;;;;7.78;96.28;100095.47;5127996;27;19924;-90
2022/11/30 05:04:09;;;;;;;;;;;;;;;7.76;96.96;100093.72;5125284;27;20013;-88
2022/11/30 05:06:34;;;;;;;;;;;;;;;7.59;97.70;100096.31;5132234;27;19972;-91
2022/11/30 05:09:00;;;;;;;;;;;;;;;7.62;97.39;100088.44;5127893;27;19916;-88
2022/11/30 05:11:31;;;;;;;;;;;;;;;7.66;97.21;100093.69;5127510;27;20446;-92
2022/11/30 05:13:56;;;;;;;;;;;;;;;7.60;97.95;100098.94;5127412;27;20430;-89
2022/11/30 05:16:22;;;;;;;;;;;;;;;7.62;97.15;100104.19;5114454;27;19915;-95
2022/11/30 05:18:47;;;;;;;;;;;;;;;7.66;97.14;100103.31;5112968;27;19915;-92
2022/11/30 05:21:12;;;;;;;;;;;;;;;7.58;97.61;100105.91;5118528;27;19994;-89
2022/11/30 05:23:38;;;;;;;;;;;;;;;7.70;96.24;100105.09;5110701;27;19907;-94
2022/11/30 05:26:03;;;;;;;;;;;;;;;7.59;96.62;100102.41;5114341;27;19923;-91
2022/11/30 05:28:28;;;;;;;;;;;;;;;7.41;98.31;100110.22;5113833;27;19915;-92
2022/11/30 05:30:54;;;;;;;;;;;;;;;7.51;97.96;100107.63;5110176;27;19923;-91
2022/11/30 05:33:20;;;;;;;;;;;;;;;7.51;98.42;100114.66;5124291;27;19923;-92
2022/11/30 05:35:46;;;;;;;;;;;;;;;7.56;97.58;100118.16;5135378;27;19933;-89
2022/11/30 05:38:11;;;;;;;;;;;;;;;7.53;97.95;100129.50;5166724;27;19931;-88
2022/11/30 05:40:36;;;;;;;;;;;;;;;7.61;98.20;100128.69;5145300;27;19920;-87
2022/11/30 05:43:03;;;;;;;;;;;;;;;7.69;97.86;100132.22;5144501;27;19971;-87
2022/11/30 05:45:28;;;;;;;;;;;;;;;7.72;96.86;100137.47;5117746;27;19946;-87
2022/11/30 05:47:53;;;;;;;;;;;;;;;7.59;96.84;100136.56;5126312;27;19965;-88
2022/11/30 05:50:19;;;;;;;;;;;;;;;7.53;97.32;100142.66;5121607;27;20297;-93
2022/11/30 05:52:45;;;;;;;;;;;;;;;7.45;97.60;100147.00;5108145;27;20392;-90
2022/11/30 05:55:10;;;;;;;;;;;;;;;7.46;97.88;100156.63;5129010;27;20014;-88
2022/11/30 05:57:36;;;;;;;;;;;;;;;7.37;97.95;100148.72;5121847;27;20457;-90
2022/11/30 06:00:03;;;;;;;;;;;;;;;7.42;98.75;100151.34;5107633;27;19918;-90
2022/11/30 06:02:28;;;;;;;;;;;;;;;7.45;98.21;100154.00;5129964;27;21131;-88
2022/11/30 06:04:53;;;;;;;;;;;;;;;7.44;97.96;100160.09;5129800;27;20018;-88
2022/11/30 06:07:19;;;;;;;;;;;;;;;7.35;98.37;100155.69;5122483;27;19947;-88
2022/11/30 06:09:44;;;;;;;;;;;;;;;7.35;99.69;100160.94;5127990;27;19916;-87
2022/11/30 06:12:11;;;;;;;;;;;;;;;7.30;98.83;100162.66;5111751;28;20017;-89
2022/11/30 06:14:36;;;;;;;;;;;;;;;7.68;97.52;100154.97;5130341;28;20026;-87
2022/11/30 06:17:01;;;;;;;;;;;;;;;7.60;96.63;100158.41;5119180;28;20448;-87
2022/11/30 06:19:26;;;;;;;;;;;;;;;7.78;96.91;100169.00;5116748;28;19915;-87
2022/11/30 06:21:52;;;;;;;;;;;;;;;7.73;96.17;100170.75;5132274;28;19998;-88
2022/11/30 06:24:17;;;;;;;;;;;;;;;7.68;96.13;100167.22;5130979;28;19998;-87
2022/11/30 06:26:42;;;;;;;;;;;;;;;7.55;97.35;100176.78;5121361;27;19916;-88
2022/11/30 06:29:08;;;;;;;;;;;;;;;7.53;97.91;100171.53;5136752;27;20422;-87
2022/11/30 06:31:34;;;;;;;;;;;;;;;7.76;96.73;100178.63;5136204;27;19981;-87
2022/11/30 06:33:59;;;;;;;;;;;;;;;7.57;97.40;100176.78;5135692;27;19919;-87
2022/11/30 06:36:24;;;;;;;;;;;;;;;7.66;97.16;100171.59;5135979;27;20059;-87
2022/11/30 06:38:50;;;;;;;;;;;;;;;7.80;96.79;100177.78;5136296;27;19971;-88
2022/11/30 06:41:17;;;;;;;;;;;;;;;7.74;96.40;100179.50;5123155;27;19919;-87
2022/11/30 06:43:42;;;;;;;;;;;;;;;7.75;96.29;100181.25;5136034;27;20436;-86
2022/11/30 06:46:07;;;;;;;;;;;;;;;7.72;96.39;100171.59;5135512;27;19911;-88
2022/11/30 06:48:33;;;;;;;;;;;;;;;7.68;95.77;100170.72;5117284;27;19911;-89
2022/11/30 06:50:59;;;;;;;;;;;;;;;7.56;96.36;100173.28;5135537;27;19911;-86
2022/11/30 06:53:25;;;;;;;;;;;;;;;7.66;96.05;100182.09;5117274;27;19919;-87
2022/11/30 06:55:50;;;;;;;;;;;;;;;7.62;96.31;100182.97;5135287;27;19915;-87
2022/11/30 06:58:15;;;;;;;;;;;;;;;7.42;96.08;100173.22;5135728;27;19962;-85
2022/11/30 07:00:41;;;;;;;;;;;;;;;7.41;97.97;100181.97;5135496;27;19917;-86
2022/11/30 07:03:07;;;;;;;;;;;;;;;7.40;97.93;100187.19;5135534;27;19915;-88
2022/11/30 07:05:38;;;;;;;;;;;;;;;7.57;97.41;100187.28;5120222;27;19915;-89
2022/11/30 07:08:03;;;;;;;;;;;;;;;7.57;96.89;100190.81;5132396;27;19998;-88
2022/11/30 07:10:29;;;;;;;;;;;;;;;7.51;97.43;100190.78;5126961;27;20011;-87
2022/11/30 07:12:54;;;;;;;;;;;;;;;7.61;96.82;100189.06;5123821;27;19914;-89
2022/11/30 07:15:20;;;;;;;;;;;;;;;7.81;95.55;100195.28;5130520;27;19908;-87
2022/11/30 07:17:45;;;;;;;;;;;;;;;7.76;95.93;100189.16;5106757;27;19911;-88
2022/11/30 07:20:10;;;;;;;;;;;;;;;7.70;95.74;100202.25;5133253;27;19995;-87
2022/11/30 07:22:35;;;;;;;;;;;;;;;7.66;95.47;100206.63;5134655;27;19911;-88
2022/11/30 07:27:45;;;;;;;;;;;;;;;7.62;95.66;100196.09;5123301;27;19913;-88
2022/11/30 07:30:10;;;;;;;;;;;;;;;7.83;95.30;100200.53;5121174;27;20350;-88
2022/11/30 07:32:39;;;;;;;;;;;;;;;7.93;94.32;100201.47;5125188;27;19971;-88
2022/11/30 07:35:04;;;;;;;;;;;;;;;8.07;93.36;100207.66;5133143;27;20369;-86
2022/11/30 07:37:29;;;;;;;;;;;;;;;8.02;93.12;100196.25;5113739;27;19964;-87
2022/11/30 07:39:55;;;;;;;;;;;;;;;7.75;94.26;100197.00;5123137;27;20323;-86
2022/11/30 07:42:21;;;;;;;;;;;;;;;7.80;94.22;100197.91;5134951;27;19912;-87
2022/11/30 07:44:48;;;;;;;;;;;;;;;7.74;94.08;100206.66;5135187;27;19915;-85
2022/11/30 07:47:14;;;;;;;;;;;;;;;7.70;94.55;100205.75;5134676;27;19911;-86
2022/11/30 07:49:39;;;;;;;;;;;;;;;7.82;93.91;100198.81;5134904;27;19918;-87
2022/11/30 07:52:04;;;;;;;;;;;;;;;7.85;93.24;100196.19;5134812;27;20420;-87
2022/11/30 07:54:30;;;;;;;;;;;;;;;7.93;93.26;100204.09;5135208;27;20368;-88
2022/11/30 07:56:55;;;;;;;;;;;;;;;7.97;92.89;100197.97;5134156;27;19915;-91
2022/11/30 07:59:20;;;;;;;;;;;;;;;7.94;93.57;100200.59;5133494;27;19915;-89
2022/11/30 08:01:46;;;;;;;;;;;;;;;7.89;94.42;100206.72;5122018;27;20359;-89
2022/11/30 08:04:12;;;;;;;;;;;;;;;7.74;93.19;100209.28;5134444;27;19915;-88
2022/11/30 08:06:38;;;;;;;;;;;;;;;7.76;94.35;100210.16;5134295;27;19964;-87
2022/11/30 08:09:04;;;;;;;;;;;;;;;7.66;93.95;100218.84;5134454;27;19912;-87
2022/11/30 08:11:32;;;;;;;;;;;;;;;7.57;94.22;100211.81;5134166;27;19915;-87
2022/11/30 08:14:00;;;;;;;;;;;;;;;7.56;94.13;100215.31;5123478;27;19920;-90
2022/11/30 08:16:26;;;;;;;;;;;;;;;7.61;94.01;100212.69;5101245;27;20002;-88
2022/11/30 08:18:55;;;;;;;;;;;;;;;7.55;93.94;100218.78;5135825;27;19963;-90
2022/11/30 08:21:21;;;;;;;;;;;;;;;7.56;93.69;100215.31;5116045;27;19916;-87
2022/11/30 08:23:55;;;;;;;;;;;;;;;7.52;93.89;100209.16;5121035;27;19918;-89
2022/11/30 08:26:21;;;;;;;;;;;;;;;7.52;93.27;100211.78;5134990;27;19919;-88
2022/11/30 08:28:47;;;;;;;;;;;;;;;7.81;93.12;100218.06;5115374;27;19951;-87
2022/11/30 08:31:32;;;;;;;;;;;;;;;7.84;92.60;100211.06;5122464;27;19985;-89
2022/11/30 08:34:08;;;;;;;;;;;;;;;7.81;91.93;100215.44;5132096;27;19934;-89
2022/11/30 08:36:34;;;;;;;;;;;;;;;7.75;92.99;100211.00;5119824;27;20317;-89
2022/11/30 08:39:01;;;;;;;;;;;;;;;7.49;93.64;100203.91;5112291;28;19912;-88
2022/11/30 08:41:26;;;;;;;;;;;;;;;7.42;93.84;100201.22;5130543;27;20393;-87
2022/11/30 08:43:52;;;;;;;;;;;;;;;7.41;94.93;100197.72;5132189;27;20002;-87
2022/11/30 08:46:19;;;;;;;;;;;;;;;7.60;93.83;100193.47;5131822;27;19975;-88
2022/11/30 08:48:45;;;;;;;;;;;;;;;7.53;94.69;100187.28;5125037;27;20400;-87
2022/11/30 08:51:12;;;;;;;;;;;;;;;7.58;94.54;100189.06;5132035;27;19915;-89
2022/11/30 08:53:38;;;;;;;;;;;;;;;7.56;94.81;100196.06;5132986;27;20007;-87
2022/11/30 08:56:05;;;;;;;;;;;;;;;7.38;94.76;100192.44;5132784;27;20379;-86
2022/11/30 08:58:32;;;;;;;;;;;;;;;7.40;94.87;100180.22;5123325;27;19918;-86
2022/11/30 09:01:24;;;;;;;;;;;;;;;7.50;95.39;100184.63;5111874;28;19919;-88
2022/11/30 09:03:52;;;;;;;;;;;;;;;7.61;95.32;100178.56;5109942;28;19915;-88
2022/11/30 09:06:19;;;;;;;;;;;;;;;7.68;95.10;100191.72;5112374;28;19919;-89
2022/11/30 09:08:45;;;;;;;;;;;;;;;7.72;95.57;100182.13;5123381;27;19911;-88
2022/11/30 09:11:12;;;;;;;;;;;;;;;7.68;94.74;100181.22;5132688;27;19915;-90
2022/11/30 09:13:38;;;;;;;;;;;;;;;7.65;94.39;100189.09;5125356;27;19922;-87
2022/11/30 09:16:04;;;;;;;;;;;;;;;7.59;95.93;100191.69;5150533;27;20025;-90
2022/11/30 09:18:29;;;;;;;;;;;;;;;7.57;95.43;100193.44;5135620;27;20451;-90
2022/11/30 09:21:18;;;;;;;;;;;;;;;7.67;95.95;100189.09;5118240;27;19931;-89
2022/11/30 09:23:44;;;;;;;;;;;;;;;7.77;96.09;100180.41;5097965;27;20009;-87
2022/11/30 09:26:11;;;;;;;;;;;;;;;8.06;94.32;100198.00;5128894;27;19926;-88
2022/11/30 09:28:37;;;;;;;;;;;;;;;8.09;94.48;100190.13;5127515;27;19911;-85
2022/11/30 09:31:04;;;;;;;;;;;;;;;8.32;93.59;100190.19;5133588;27;19918;-86
2022/11/30 09:33:30;;;;;;;;;;;;;;;8.10;94.55;100185.78;5123354;27;19915;-87
2022/11/30 09:35:59;;;;;;;;;;;;;;;8.10;94.59;100188.41;5130445;27;19964;-86
2022/11/30 09:38:25;;;;;;;;;;;;;;;7.92;95.37;100183.94;5130431;27;19955;-88
2022/11/30 09:40:57;;;;;;;;;;;;;;;7.94;95.73;100188.34;5129700;27;19981;-90
2022/11/30 09:43:26;;;;;;;;;;;;;;;7.82;96.29;100183.91;5136654;27;20027;-87
2022/11/30 09:45:55;;;;;;;;;;;;;;;7.98;96.16;100183.97;5121992;27;19993;-86
2022/11/30 09:48:32;;;;;;;;;;;;;;;7.73;96.71;100177.75;5103309;27;19912;-88
2022/11/30 09:51:03;;;;;;;;;;;;;;;8.00;96.38;100172.59;5124904;27;19990;-86
2022/11/30 09:53:40;;;;;;;;;;;;;;;7.95;97.08;100173.47;5112769;27;19911;-88
2022/11/30 09:56:16;;;;;;;;;;;;;;;7.95;97.04;100174.31;5126231;27;19998;-86
2022/11/30 09:58:47;;;;;;;;;;;;;;;7.87;96.61;100182.19;5106891;27;19918;-88
2022/11/30 10:01:17;;;;;;;;;;;;;;;7.85;98.23;100172.56;5120263;27;19975;-89
2022/11/30 10:03:42;;;;;;;;;;;;;;;8.10;97.18;100175.25;5111009;28;19968;-87
2022/11/30 10:06:10;;;;;;;;;;;;;;;7.94;97.32;100172.59;5122928;27;19922;-87
2022/11/30 10:08:41;;;;;;;;;;;;;;;7.89;97.94;100183.09;5127520;27;19926;-88
2022/11/30 10:11:34;;;;;;;;;;;;;;;8.13;97.13;100183.16;5140085;27;19954;-90
2022/11/30 10:14:18;;;;;;;;;;;;;;;8.19;95.53;100183.16;5154223;27;19942;-89
2022/11/30 10:17:02;;;;;;;;;;;;;;;8.18;96.03;100182.28;5149471;28;19923;-88
2022/11/30 10:19:46;;;;;;;;;;;;;;;8.33;96.15;100178.81;5155331;28;19912;-87
2022/11/30 10:22:28;;;;;;;;;;;;;;;8.50;95.52;100176.25;5150721;27;19912;-84
2022/11/30 10:24:53;;;;;;;;;;;;;;;8.37;94.66;100171.78;5134994;27;19916;-86
2022/11/30 10:27:51;;;;;;;;;;;;;;;8.36;93.85;100177.94;5117860;28;20396;-85
2022/11/30 10:30:32;;;;;;;;;;;;;;;8.45;93.72;100179.72;5073938;28;19908;-85
2022/11/30 10:32:59;;;;;;;;;;;;;;;8.53;93.62;100184.13;5131030;28;19970;-84
2022/11/30 10:35:33;;;;;;;;;;;;;;;8.68;92.85;100183.28;5130614;28;20607;-85
2022/11/30 10:38:02;;;;;;;;;;;;;;;8.89;92.26;100176.25;5110396;28;20324;-85
2022/11/30 10:40:34;;;;;;;;;;;;;;;8.87;91.77;100176.25;5119712;28;19915;-86
2022/11/30 10:43:07;;;;;;;;;;;;;;;8.84;90.94;100183.28;5124776;28;19928;-87
2022/11/30 10:45:32;;;;;;;;;;;;;;;8.87;91.14;100186.78;5124727;28;19912;-87
2022/11/30 10:48:07;;;;;;;;;;;;;;;9.07;90.19;100180.63;5125328;28;19926;-85
2022/11/30 10:50:33;;;;;;;;;;;;;;;8.83;90.67;100184.16;5105212;28;19973;-87
2022/11/30 10:52:59;;;;;;;;;;;;;;;8.95;90.45;100185.00;5109451;27;19908;-85
2022/11/30 10:55:29;;;;;;;;;;;;;;;8.86;89.22;100192.91;5118301;28;19916;-85
2022/11/30 10:58:02;;;;;;;;;;;;;;;8.57;90.88;100182.38;5118351;28;19908;-83
2022/11/30 11:00:27;;;;;;;;;;;;;;;8.49;91.32;100181.50;5117109;28;19923;-86
2022/11/30 11:02:52;;;;;;;;;;;;;;;8.67;90.32;100181.50;5115138;28;19963;-84
2022/11/30 11:05:18;;;;;;;;;;;;;;;8.77;89.95;100185.00;5116393;28;19956;-85
2022/11/30 11:07:49;;;;;;;;;;;;;;;8.53;91.03;100183.28;5129161;28;20002;-85
2022/11/30 11:10:16;;;;;;;;;;;;;;;8.45;91.23;100170.09;5121808;28;19919;-86
2022/11/30 11:12:45;;;;;;;;;;;;;;;8.68;90.83;100172.75;5123530;27;19912;-87
2022/11/30 11:15:17;;;;;;;;;;;;;;;8.68;90.40;100167.50;5121680;27;20135;-87
2022/11/30 11:17:42;;;;;;;;;;;;;;;8.59;90.63;100163.09;5128337;27;20022;-86
2022/11/30 11:20:26;;;;;;;;;;;;;;;8.67;90.49;100172.75;5117314;27;20430;-87
2022/11/30 11:22:52;;;;;;;;;;;;;;;8.41;90.91;100161.28;5123995;27;19915;-86
2022/11/30 11:25:21;;;;;;;;;;;;;;;8.56;91.32;100164.88;5119594;27;19924;-87
2022/11/30 11:27:51;;;;;;;;;;;;;;;8.42;91.57;100154.31;5117080;27;20381;-87
2022/11/30 11:30:25;;;;;;;;;;;;;;;8.56;91.65;100154.34;5119874;27;19911;-85
2022/11/30 11:32:59;;;;;;;;;;;;;;;8.73;90.98;100159.59;5118413;27;19998;-86
2022/11/30 11:35:36;;;;;;;;;;;;;;;8.69;90.78;100150.81;5122331;27;19912;-87
2022/11/30 11:38:02;;;;;;;;;;;;;;;8.80;90.99;100155.22;5115768;27;19919;-86
2022/11/30 11:40:28;;;;;;;;;;;;;;;8.82;90.54;100156.97;5123858;27;19915;-86
2022/11/30 11:42:57;;;;;;;;;;;;;;;8.77;90.74;100161.34;5124985;27;19946;-85
2022/11/30 11:45:27;;;;;;;;;;;;;;;8.73;90.47;100162.25;5126395;27;19915;-86
2022/11/30 11:48:00;;;;;;;;;;;;;;;8.78;90.09;100160.47;5112861;27;19919;-86
2022/11/30 11:50:25;;;;;;;;;;;;;;;8.88;89.94;100153.44;5133253;27;19992;-84
2022/11/30 11:53:05;;;;;;;;;;;;;;;8.69;90.57;100165.75;5134746;27;20048;-87
2022/11/30 11:55:31;;;;;;;;;;;;;;;8.78;91.17;100150.81;5135075;27;19911;-84
2022/11/30 11:57:58;;;;;;;;;;;;;;;8.74;90.03;100156.97;5134494;27;19911;-87
2022/11/30 12:00:24;;;;;;;;;;;;;;;8.53;91.77;100152.59;5134898;27;20502;-88
2022/11/30 12:03:00;;;;;;;;;;;;;;;8.52;91.99;100152.56;5129545;27;19916;-86
2022/11/30 12:05:25;;;;;;;;;;;;;;;8.48;91.54;100150.81;5133718;27;20101;-87
2022/11/30 12:08:02;;;;;;;;;;;;;;;8.50;92.00;100154.34;5115669;27;20312;-86
2022/11/30 12:10:40;;;;;;;;;;;;;;;8.47;92.05;100157.84;5113778;28;20004;-88
2022/11/30 12:13:41;;;;;;;;;;;;;;;8.42;92.78;100155.16;5113901;28;19915;-87
2022/11/30 12:16:06;;;;;;;;;;;;;;;8.49;92.06;100158.69;5076454;28;20445;-84
2022/11/30 12:18:50;;;;;;;;;;;;;;;8.52;91.09;100157.84;5113595;27;19922;-85
2022/11/30 12:21:24;;;;;;;;;;;;;;;8.62;90.74;100156.97;5130460;27;19928;-88
2022/11/30 12:23:52;;;;;;;;;;;;;;;8.52;90.61;100160.47;5122570;27;19915;-86
2022/11/30 12:26:17;;;;;;;;;;;;;;;8.63;91.21;100160.47;5151918;27;19915;-86
2022/11/30 12:28:54;;;;;;;;;;;;;;;8.70;89.99;100162.25;5107292;27;19952;-85
2022/11/30 12:31:19;;;;;;;;;;;;;;;8.74;89.71;100162.25;5125631;27;19907;-85
2022/11/30 12:34:02;;;;;;;;;;;;;;;8.68;90.20;100171.84;5126788;27;19915;-84
2022/11/30 12:36:39;;;;;;;;;;;;;;;8.89;89.31;100171.00;5150025;27;20284;-86
2022/11/30 12:39:08;;;;;;;;;;;;;;;8.54;89.95;100175.38;5115455;27;19916;-87
2022/11/30 12:41:46;;;;;;;;;;;;;;;8.65;90.24;100175.38;5130618;27;19960;-85
2022/11/30 12:44:21;;;;;;;;;;;;;;;8.66;90.75;100179.75;5133553;27;19911;-86
2022/11/30 12:47:16;;;;;;;;;;;;;;;8.66;90.26;100177.13;5132594;27;20388;-92
2022/11/30 12:50:11;;;;;;;;;;;;;;;8.56;91.10;100172.75;5119702;27;19939;-90
2022/11/30 12:52:58;;;;;;;;;;;;;;;8.64;91.17;100178.88;5077338;28;19958;-88
2022/11/30 12:55:27;;;;;;;;;;;;;;;8.58;91.07;100177.13;5116416;27;19916;-89